Time;durP1;ratioP1;P1;durP2;ratioP2;P2;SDS_P1;SDS_P2;PMS_P1;PMS_P2;Temp;Humidity;BMP_temperature;BMP_pressure;BME280_temperature;BME280_humidity;BME280_pressure;Samples;Min_cycle;Max_cycle;Signal;HPM_P1;HPM_P2
2022/03/29 00:00:59;;;;;;;4.43;4.03;;;8.00;99.90;;;;;;451859;263;28118;-72
2022/03/29 00:03:09;;;;;;;4.10;3.70;;;8.00;99.90;;;;;;451861;263;28129;-74
2022/03/29 00:05:10;;;;;;;4.70;4.30;;;7.90;99.90;;;;;;451852;263;28069;-73
2022/03/29 00:07:13;;;;;;;4.20;3.80;;;7.90;99.90;;;;;;451849;263;28138;-72
2022/03/29 00:09:14;;;;;;;4.00;3.60;;;7.90;99.90;;;;;;451904;263;27766;-72
2022/03/29 00:11:18;;;;;;;5.23;3.87;;;7.90;99.90;;;;;;451842;263;28097;-73
2022/03/29 00:13:19;;;;;;;5.80;3.63;;;8.00;99.90;;;;;;451875;263;28465;-72
2022/03/29 00:15:21;;;;;;;4.40;4.00;;;8.00;99.90;;;;;;451985;262;28466;-73
2022/03/29 00:17:25;;;;;;;4.53;3.80;;;8.00;99.90;;;;;;451858;263;28140;-73
2022/03/29 00:19:26;;;;;;;4.20;3.80;;;8.00;99.90;;;;;;451260;263;27912;-72
2022/03/29 00:21:27;;;;;;;4.57;4.00;;;8.00;99.90;;;;;;450062;262;28214;-72
2022/03/29 00:23:29;;;;;;;4.77;3.57;;;8.00;99.90;;;;;;450043;263;28647;-74
2022/03/29 00:25:39;;;;;;;4.00;3.60;;;7.90;99.90;;;;;;449761;264;28605;-73
2022/03/29 00:27:40;;;;;;;4.90;3.87;;;8.00;99.90;;;;;;450005;262;28022;-72
2022/03/29 00:29:42;;;;;;;4.70;3.77;;;7.90;99.90;;;;;;450008;263;28498;-73
2022/03/29 00:31:43;;;;;;;4.20;3.77;;;7.90;99.90;;;;;;449987;263;28031;-69
2022/03/29 00:33:45;;;;;;;4.03;3.60;;;7.90;99.90;;;;;;450024;263;28173;-73
2022/03/29 00:35:46;;;;;;;4.50;4.10;;;7.90;99.90;;;;;;452180;262;28134;-72
2022/03/29 00:37:48;;;;;;;5.30;4.70;;;7.90;99.90;;;;;;452146;262;28028;-72
2022/03/29 00:39:52;;;;;;;4.10;3.70;;;7.80;99.90;;;;;;452008;262;28065;-72
2022/03/29 00:41:53;;;;;;;4.00;3.60;;;7.90;99.90;;;;;;452121;262;28041;-72
2022/03/29 00:46:04;;;;;;;4.23;3.83;;;7.90;99.90;;;;;;452159;262;27553;-72
2022/03/29 00:48:08;;;;;;;3.80;3.50;;;7.80;99.90;;;;;;450032;263;28164;-72
2022/03/29 00:50:07;;;;;;;3.87;3.50;;;7.80;99.90;;;;;;450007;263;28022;-72
2022/03/29 00:52:22;;;;;;;4.70;3.80;;;7.80;99.90;;;;;;452172;262;28416;-72
2022/03/29 00:54:23;;;;;;;4.17;3.80;;;7.80;99.90;;;;;;452164;256;28080;-72
2022/03/29 00:56:31;;;;;;;3.87;3.57;;;7.80;99.90;;;;;;452148;262;28020;-72
2022/03/29 00:58:34;;;;;;;3.80;3.27;;;7.90;99.90;;;;;;450055;263;27973;-72
2022/03/29 01:00:33;;;;;;;4.30;3.67;;;7.80;99.90;;;;;;450018;263;27963;-72
2022/03/29 01:02:41;;;;;;;3.70;3.40;;;7.80;99.90;;;;;;450043;263;27812;-72
2022/03/29 01:04:42;;;;;;;6.73;4.40;;;7.80;99.90;;;;;;450013;263;28089;-72
2022/03/29 01:06:45;;;;;;;4.20;3.80;;;7.80;99.90;;;;;;449995;263;27933;-72
2022/03/29 01:08:46;;;;;;;3.60;3.30;;;7.70;99.90;;;;;;449991;263;28068;-72
2022/03/29 01:12:55;;;;;;;5.63;4.60;;;7.70;99.90;;;;;;450030;262;27828;-72
2022/03/29 01:14:58;;;;;;;3.87;3.57;;;7.70;99.90;;;;;;452154;262;28174;-72
2022/03/29 01:19:19;;;;;;;4.53;4.13;;;7.70;99.90;;;;;;452112;263;27699;-72
2022/03/29 01:21:20;;;;;;;4.20;3.90;;;7.70;99.90;;;;;;452207;261;28068;-74
2022/03/29 01:23:21;;;;;;;3.73;3.43;;;7.60;99.90;;;;;;452165;262;27783;-72
2022/03/29 01:25:23;;;;;;;4.93;4.40;;;7.60;99.90;;;;;;452184;262;27929;-73
2022/03/29 01:27:24;;;;;;;4.47;4.07;;;7.60;99.90;;;;;;452196;262;28070;-78
2022/03/29 01:29:25;;;;;;;6.00;4.00;;;7.50;99.90;;;;;;452216;262;28629;-72
2022/03/29 01:31:38;;;;;;;4.50;4.10;;;7.40;99.90;;;;;;452215;263;28651;-72
2022/03/29 01:33:39;;;;;;;4.87;4.37;;;7.40;99.90;;;;;;452210;256;28061;-71
2022/03/29 01:35:40;;;;;;;3.80;3.50;;;7.30;99.90;;;;;;452200;262;28179;-71
2022/03/29 01:37:48;;;;;;;5.10;4.03;;;7.30;99.90;;;;;;452162;262;27664;-72
2022/03/29 01:39:49;;;;;;;4.23;3.73;;;7.30;99.90;;;;;;452185;262;28125;-72
2022/03/29 01:42:00;;;;;;;5.00;4.30;;;7.30;99.90;;;;;;452181;262;28091;-72
2022/03/29 01:44:01;;;;;;;4.53;3.90;;;7.30;99.90;;;;;;452183;262;28081;-71
2022/03/29 01:46:03;;;;;;;5.67;4.50;;;7.30;99.90;;;;;;452198;262;27979;-72
2022/03/29 01:48:05;;;;;;;6.23;3.63;;;7.30;99.90;;;;;;452168;262;28425;-71
2022/03/29 01:50:08;;;;;;;4.77;4.33;;;7.30;99.90;;;;;;452185;263;29322;-72
2022/03/29 01:52:10;;;;;;;4.53;4.10;;;7.30;99.90;;;;;;452206;262;28048;-71
2022/03/29 01:54:13;;;;;;;4.50;3.80;;;7.30;99.90;;;;;;452195;262;28156;-71
2022/03/29 01:56:14;;;;;;;4.80;4.30;;;7.30;99.90;;;;;;452194;262;28046;-72
2022/03/29 02:00:33;;;;;;;4.43;3.90;;;7.30;99.90;;;;;;450736;264;28138;-73
2022/03/29 02:04:43;;;;;;;4.83;4.30;;;7.30;99.90;;;;;;450439;263;28063;-71
2022/03/29 02:06:50;;;;;;;4.17;3.60;;;7.30;99.90;;;;;;450611;263;28146;-71
2022/03/29 02:08:52;;;;;;;4.47;3.90;;;7.30;99.90;;;;;;450764;263;28369;-72
2022/03/29 02:10:53;;;;;;;5.03;4.20;;;7.30;99.90;;;;;;449996;264;29120;-72
2022/03/29 02:13:03;;;;;;;4.10;3.70;;;7.20;99.90;;;;;;450034;263;28480;-71
2022/03/29 02:15:04;;;;;;;4.60;4.20;;;7.20;99.90;;;;;;450031;264;27550;-72
2022/03/29 02:17:18;;;;;;;5.53;4.23;;;7.30;99.90;;;;;;450013;264;27950;-71
2022/03/29 02:19:19;;;;;;;5.17;4.10;;;7.20;99.90;;;;;;450008;263;28210;-71
2022/03/29 02:23:24;;;;;;;4.50;4.10;;;7.20;99.90;;;;;;450039;264;27935;-72
2022/03/29 02:25:29;;;;;;;4.77;4.20;;;7.20;99.90;;;;;;450017;263;27945;-72
2022/03/29 02:27:30;;;;;;;5.20;4.30;;;7.10;99.90;;;;;;450021;263;27850;-71
2022/03/29 02:29:33;;;;;;;6.23;5.20;;;7.10;99.90;;;;;;450049;263;28179;-72
2022/03/29 02:31:38;;;;;;;5.03;4.07;;;7.20;99.90;;;;;;450002;263;28470;-71
2022/03/29 02:33:40;;;;;;;8.03;4.60;;;7.20;99.90;;;;;;450051;263;28079;-71
2022/03/29 02:35:41;;;;;;;5.73;4.40;;;7.20;99.90;;;;;;450050;263;27585;-71
2022/03/29 02:37:42;;;;;;;5.50;4.23;;;7.20;99.90;;;;;;450048;262;28044;-71
2022/03/29 02:39:43;;;;;;;5.20;4.13;;;7.20;99.90;;;;;;450015;263;27929;-72
2022/03/29 02:41:45;;;;;;;4.60;4.20;;;7.20;99.90;;;;;;450008;263;27844;-72
2022/03/29 02:43:54;;;;;;;6.63;4.77;;;7.20;99.90;;;;;;450049;263;27987;-71
2022/03/29 02:45:55;;;;;;;4.73;4.20;;;7.10;99.90;;;;;;450053;263;27945;-72
2022/03/29 02:48:02;;;;;;;5.13;4.63;;;7.10;99.90;;;;;;450044;264;27782;-71
2022/03/29 02:50:03;;;;;;;6.20;4.80;;;7.00;99.90;;;;;;450013;264;27880;-71
2022/03/29 02:52:05;;;;;;;6.90;4.97;;;7.00;99.90;;;;;;450053;264;27767;-73
2022/03/29 02:54:06;;;;;;;6.20;4.63;;;7.00;99.90;;;;;;450060;263;28265;-74
2022/03/29 02:56:08;;;;;;;4.60;3.93;;;7.10;99.90;;;;;;450103;262;27966;-72
2022/03/29 02:58:09;;;;;;;6.23;5.00;;;7.10;99.90;;;;;;450018;263;28094;-72
2022/03/29 03:00:10;;;;;;;7.23;4.80;;;7.10;99.90;;;;;;450002;264;27901;-71
2022/03/29 03:02:11;;;;;;;5.97;5.07;;;7.10;99.90;;;;;;450054;263;28240;-71
2022/03/29 03:04:21;;;;;;;6.00;4.43;;;7.10;99.90;;;;;;450052;263;28069;-72
2022/03/29 03:15:19;;;;;;;8.50;5.43;;;7.00;99.90;;;;;;469713;252;28279;-71
2022/03/29 03:17:21;;;;;;;8.23;5.40;;;7.00;99.90;;;;;;456691;259;28066;-70
2022/03/29 03:19:25;;;;;;;6.72;5.55;;;6.90;99.90;;;;;;466350;251;27999;-71
2022/03/29 03:21:26;;;;;;;6.63;5.17;;;6.90;99.90;;;;;;466173;254;27510;-71
2022/03/29 03:23:27;;;;;;;6.17;4.80;;;6.80;99.90;;;;;;466199;254;28169;-70
2022/03/29 03:25:29;;;;;;;6.60;5.47;;;6.80;99.90;;;;;;466229;254;27905;-71
2022/03/29 03:27:30;;;;;;;6.87;5.60;;;6.80;99.90;;;;;;466201;254;28519;-70
2022/03/29 03:29:31;;;;;;;9.07;5.23;;;6.80;99.90;;;;;;466166;254;28117;-70
2022/03/29 03:31:39;;;;;;;6.87;5.20;;;6.80;99.90;;;;;;466143;254;28453;-71
2022/03/29 03:33:40;;;;;;;6.40;5.30;;;6.80;99.90;;;;;;466210;254;28103;-72
2022/03/29 03:35:41;;;;;;;6.57;4.87;;;6.80;99.90;;;;;;466427;253;27983;-71
2022/03/29 03:37:42;;;;;;;6.13;5.03;;;6.80;99.90;;;;;;466540;253;27999;-72
2022/03/29 03:39:44;;;;;;;6.03;4.73;;;6.80;99.90;;;;;;466168;254;28456;-71
2022/03/29 03:41:51;;;;;;;7.40;5.07;;;6.80;99.90;;;;;;466144;254;28439;-71
2022/03/29 03:43:53;;;;;;;6.27;5.10;;;6.80;99.90;;;;;;466200;255;27868;-72
2022/03/29 03:45:57;;;;;;;5.60;4.77;;;6.80;99.90;;;;;;466180;254;28022;-71
2022/03/29 03:47:58;;;;;;;6.53;4.77;;;6.70;99.90;;;;;;466172;254;28107;-71
2022/03/29 03:49:59;;;;;;;6.10;4.77;;;6.70;99.90;;;;;;466165;254;28104;-73
2022/03/29 03:52:07;;;;;;;6.27;4.77;;;6.70;99.90;;;;;;466172;254;28324;-70
2022/03/29 03:54:08;;;;;;;5.80;5.00;;;6.70;99.90;;;;;;466166;254;28370;-71
2022/03/29 03:56:15;;;;;;;5.80;4.90;;;6.70;99.90;;;;;;466172;254;28176;-71
2022/03/29 03:58:16;;;;;;;7.70;5.07;;;6.70;99.90;;;;;;466145;255;28134;-71
2022/03/29 04:00:21;;;;;;;5.67;5.10;;;6.70;99.90;;;;;;466188;253;27999;-71
2022/03/29 04:02:19;;;;;;;7.03;5.40;;;6.60;99.90;;;;;;466094;254;28586;-73
2022/03/29 04:04:20;;;;;;;5.27;4.53;;;6.60;99.90;;;;;;466231;254;28191;-74
2022/03/29 04:06:21;;;;;;;5.87;4.90;;;6.60;99.90;;;;;;466155;254;28073;-71
2022/03/29 04:08:22;;;;;;;7.43;5.40;;;6.60;99.90;;;;;;466167;254;28089;-73
2022/03/29 04:10:23;;;;;;;8.70;5.37;;;6.60;99.90;;;;;;466203;254;27990;-73
2022/03/29 04:12:25;;;;;;;9.20;6.03;;;6.60;99.90;;;;;;466146;254;28098;-70
2022/03/29 04:14:26;;;;;;;7.20;5.87;;;6.50;99.90;;;;;;466218;254;27693;-70
2022/03/29 04:16:27;;;;;;;8.10;6.10;;;6.50;99.90;;;;;;467968;254;29396;-70
2022/03/29 04:18:28;;;;;;;8.10;5.90;;;6.50;99.90;;;;;;474523;251;28543;-70
2022/03/29 04:20:30;;;;;;;8.80;6.20;;;6.40;99.90;;;;;;474580;251;29165;-73
2022/03/29 04:22:31;;;;;;;8.90;5.93;;;6.40;99.90;;;;;;474527;250;28105;-73
2022/03/29 04:24:32;;;;;;;7.87;5.80;;;6.30;99.90;;;;;;474540;251;28895;-71
2022/03/29 04:26:34;;;;;;;9.20;6.40;;;6.30;99.90;;;;;;474487;251;27494;-73
2022/03/29 04:28:35;;;;;;;7.55;5.72;;;6.30;99.90;;;;;;474507;251;27625;-73
2022/03/29 04:30:36;;;;;;;9.70;6.33;;;6.30;99.90;;;;;;474528;250;27534;-75
2022/03/29 04:34:46;;;;;;;9.63;7.00;;;6.40;99.90;;;;;;474525;251;28106;-71
2022/03/29 04:36:46;;;;;;;8.10;6.50;;;6.40;99.90;;;;;;474369;251;28944;-72
2022/03/29 04:38:53;;;;;;;10.50;6.70;;;6.40;99.90;;;;;;474515;251;27783;-72
2022/03/29 04:40:54;;;;;;;10.37;6.70;;;6.40;99.90;;;;;;474528;251;28241;-70
2022/03/29 04:42:55;;;;;;;8.90;6.80;;;6.30;99.90;;;;;;474497;251;27991;-70
2022/03/29 04:44:57;;;;;;;9.33;7.20;;;6.20;99.90;;;;;;474518;251;27906;-71
2022/03/29 04:46:58;;;;;;;9.95;7.30;;;6.20;99.90;;;;;;474523;251;28969;-70
2022/03/29 04:48:59;;;;;;;9.97;7.53;;;6.20;99.90;;;;;;474481;251;27528;-70
2022/03/29 04:51:01;;;;;;;8.67;6.47;;;6.20;99.90;;;;;;474555;251;28136;-71
2022/03/29 04:53:02;;;;;;;9.30;7.20;;;6.20;99.90;;;;;;474387;251;28017;-70
2022/03/29 04:55:04;;;;;;;12.00;7.77;;;6.10;99.90;;;;;;474507;251;27553;-70
2022/03/29 04:57:04;;;;;;;11.52;7.82;;;6.10;99.90;;;;;;474474;251;28307;-72
2022/03/29 04:59:06;;;;;;;8.48;7.10;;;6.10;99.90;;;;;;474500;251;28024;-72
2022/03/29 05:01:07;;;;;;;9.07;7.18;;;6.10;99.90;;;;;;474546;251;27638;-70
2022/03/29 05:03:08;;;;;;;9.98;8.23;;;6.10;99.90;;;;;;474501;251;27494;-70
2022/03/29 05:05:13;;;;;;;9.90;6.68;;;6.20;99.90;;;;;;474543;251;27657;-70
2022/03/29 05:07:14;;;;;;;9.20;7.45;;;6.10;99.90;;;;;;474510;251;27548;-72
2022/03/29 05:09:15;;;;;;;9.60;7.30;;;6.00;99.90;;;;;;474539;251;27507;-70
2022/03/29 05:11:16;;;;;;;10.77;7.72;;;6.10;99.90;;;;;;474501;251;28573;-73
2022/03/29 05:13:20;;;;;;;7.78;6.53;;;6.10;99.90;;;;;;474550;251;28016;-74
2022/03/29 05:15:22;;;;;;;9.13;7.00;;;6.00;99.90;;;;;;474521;251;27545;-70
2022/03/29 05:17:23;;;;;;;8.77;7.55;;;6.00;99.90;;;;;;474510;251;28668;-71
2022/03/29 05:19:25;;;;;;;9.85;8.45;;;6.00;99.90;;;;;;474505;251;28008;-71
2022/03/29 05:21:27;;;;;;;12.30;8.70;;;6.00;99.90;;;;;;474538;251;27530;-70
2022/03/29 05:25:45;;;;;;;9.63;7.83;;;6.00;99.90;;;;;;474494;251;28976;-70
2022/03/29 05:27:46;;;;;;;11.43;7.63;;;6.00;99.90;;;;;;474516;251;28980;-71
2022/03/29 05:29:47;;;;;;;8.60;7.10;;;5.90;99.90;;;;;;474542;251;27953;-70
2022/03/29 05:31:48;;;;;;;11.18;7.45;;;6.00;99.90;;;;;;474485;251;28042;-73
2022/03/29 05:35:54;;;;;;;11.33;7.50;;;6.10;99.90;;;;;;474573;251;27503;-70
2022/03/29 05:37:55;;;;;;;9.83;7.47;;;6.10;99.90;;;;;;474541;251;28140;-70
2022/03/29 05:39:56;;;;;;;13.10;7.93;;;6.10;99.90;;;;;;474533;251;28236;-70
2022/03/29 05:42:06;;;;;;;11.17;7.63;;;6.10;99.90;;;;;;474521;251;28025;-71
2022/03/29 05:44:08;;;;;;;13.55;8.30;;;6.10;99.90;;;;;;474476;251;28869;-70
2022/03/29 05:50:48;;;;;;;9.17;7.43;;;6.20;99.90;;;;;;474489;250;28675;-70
2022/03/29 05:52:49;;;;;;;13.57;7.80;;;6.20;99.90;;;;;;474527;251;28531;-70
2022/03/29 05:54:57;;;;;;;9.83;6.73;;;6.30;99.90;;;;;;474530;251;28660;-73
2022/03/29 05:56:58;;;;;;;11.00;7.37;;;6.30;99.90;;;;;;474531;251;27744;-71
2022/03/29 05:58:59;;;;;;;9.10;6.40;;;6.30;99.90;;;;;;474527;251;28146;-71
2022/03/29 06:01:00;;;;;;;8.50;6.87;;;6.30;99.90;;;;;;474508;251;27640;-72
2022/03/29 06:03:07;;;;;;;12.80;7.70;;;6.40;99.90;;;;;;474492;251;28531;-71
2022/03/29 06:05:09;;;;;;;9.83;7.20;;;6.40;99.90;;;;;;474532;251;28901;-74
2022/03/29 06:07:10;;;;;;;8.50;6.90;;;6.40;99.90;;;;;;474492;251;28107;-73
2022/03/29 06:09:11;;;;;;;10.20;7.00;;;6.40;99.90;;;;;;474490;251;29361;-70
2022/03/29 06:11:15;;;;;;;10.53;6.80;;;6.50;99.90;;;;;;474471;251;28490;-70
2022/03/29 06:13:16;;;;;;;8.57;7.23;;;6.60;99.90;;;;;;474515;251;28092;-71
2022/03/29 06:15:17;;;;;;;12.17;8.03;;;6.60;99.90;;;;;;474525;251;27917;-70
2022/03/29 06:17:18;;;;;;;12.57;9.03;;;6.70;99.90;;;;;;474457;251;28514;-70
2022/03/29 06:19:19;;;;;;;14.40;9.10;;;6.70;99.90;;;;;;474473;251;28513;-74
2022/03/29 06:21:24;;;;;;;15.93;9.87;;;6.70;99.90;;;;;;474500;251;28691;-73
2022/03/29 06:23:24;;;;;;;16.77;10.20;;;6.80;99.90;;;;;;474454;250;28182;-70
2022/03/29 06:25:36;;;;;;;15.13;9.93;;;6.90;99.90;;;;;;474515;251;28252;-73
2022/03/29 06:27:33;;;;;;;15.77;9.70;;;7.00;99.90;;;;;;474354;250;28028;-71
2022/03/29 06:29:37;;;;;;;15.97;9.40;;;7.10;99.90;;;;;;474541;251;28047;-71
2022/03/29 06:31:35;;;;;;;13.43;9.77;;;7.10;99.90;;;;;;474349;250;28076;-73
2022/03/29 06:33:36;;;;;;;13.87;10.17;;;7.10;99.90;;;;;;474511;251;27980;-73
2022/03/29 06:35:41;;;;;;;14.77;9.40;;;7.20;99.90;;;;;;474510;251;27530;-72
2022/03/29 06:37:42;;;;;;;14.17;9.40;;;7.30;99.90;;;;;;474516;251;28067;-72
2022/03/29 06:39:43;;;;;;;12.00;9.00;;;7.30;99.90;;;;;;474534;251;27878;-73
2022/03/29 06:41:50;;;;;;;14.07;9.90;;;7.30;99.90;;;;;;474509;251;27640;-73
2022/03/29 06:43:52;;;;;;;12.30;9.00;;;7.40;99.90;;;;;;474539;251;27699;-72
2022/03/29 06:45:53;;;;;;;13.50;9.40;;;7.50;99.90;;;;;;474499;251;27543;-73
2022/03/29 06:47:54;;;;;;;12.63;9.10;;;7.60;99.90;;;;;;474501;251;28095;-73
2022/03/29 06:50:05;;;;;;;12.33;8.90;;;7.70;99.90;;;;;;474478;251;29254;-73
2022/03/29 06:52:07;;;;;;;13.07;8.90;;;7.70;99.90;;;;;;474515;251;27643;-70
2022/03/29 06:54:13;;;;;;;15.00;9.70;;;7.60;99.90;;;;;;474461;251;27999;-73
2022/03/29 06:56:17;;;;;;;15.40;9.13;;;7.50;99.90;;;;;;474496;251;27868;-73
2022/03/29 06:58:22;;;;;;;12.30;7.97;;;7.60;99.90;;;;;;474457;250;27878;-73
2022/03/29 07:00:25;;;;;;;13.77;8.60;;;7.70;99.90;;;;;;474503;251;27905;-73
2022/03/29 07:02:30;;;;;;;12.67;8.10;;;7.80;99.90;;;;;;474454;250;28011;-73
2022/03/29 07:04:32;;;;;;;12.17;7.60;;;7.90;99.90;;;;;;474542;251;28324;-73
2022/03/29 07:06:39;;;;;;;10.70;7.60;;;8.00;99.90;;;;;;474507;251;28132;-73
2022/03/29 07:11:16;;;;;;;13.37;8.77;;;8.20;99.90;;;;;;474506;251;27975;-72
2022/03/29 07:13:01;;;;;;;10.53;7.20;;;8.50;99.90;;;;;;474492;250;28512;-73
2022/03/29 07:15:08;;;;;;;9.30;7.40;;;8.40;99.90;;;;;;474487;251;28006;-73
2022/03/29 07:17:13;;;;;;;16.20;8.50;;;8.40;99.90;;;;;;474478;251;28113;-73
2022/03/29 07:19:10;;;;;;;13.80;8.47;;;8.50;99.90;;;;;;474219;251;28026;-73
2022/03/29 07:21:18;;;;;;;20.57;9.80;;;8.50;99.90;;;;;;474502;251;28507;-73
2022/03/29 07:23:19;;;;;;;13.87;8.70;;;8.70;99.90;;;;;;474521;251;27874;-73
2022/03/29 07:27:26;;;;;;;14.83;9.30;;;9.10;99.90;;;;;;474546;251;27984;-73
2022/03/29 07:29:33;;;;;;;10.60;8.00;;;9.20;99.90;;;;;;474483;251;28108;-73
2022/03/29 07:31:34;;;;;;;13.00;8.47;;;9.30;99.90;;;;;;474522;251;28104;-73
2022/03/29 07:33:42;;;;;;;14.07;9.40;;;9.50;99.90;;;;;;474519;251;28002;-73
2022/03/29 07:35:43;;;;;;;19.30;9.93;;;9.70;99.90;;;;;;474510;251;27862;-73
2022/03/29 07:39:54;;;;;;;10.60;8.23;;;9.90;99.90;;;;;;474567;251;27975;-73
2022/03/29 07:42:05;;;;;;;12.63;8.80;;;9.90;99.90;;;;;;474528;251;28120;-73
2022/03/29 07:44:06;;;;;;;9.80;7.93;;;9.80;99.90;;;;;;474463;251;28072;-73
2022/03/29 07:46:16;;;;;;;12.17;7.73;;;9.90;99.90;;;;;;474527;251;28000;-74
2022/03/29 07:48:17;;;;;;;11.67;8.17;;;10.00;99.90;;;;;;474490;251;28018;-73
2022/03/29 07:50:25;;;;;;;11.77;6.93;;;10.10;99.90;;;;;;474508;251;27970;-73
2022/03/29 07:52:26;;;;;;;10.27;6.90;;;10.20;99.90;;;;;;474495;251;28124;-73
2022/03/29 07:56:50;;;;;;;10.27;7.37;;;10.60;99.90;;;;;;474557;250;28116;-73
2022/03/29 08:01:16;;;;;;;20.93;12.60;;;11.00;99.90;;;;;;474510;250;28448;-74
2022/03/29 08:03:32;;;;;;;27.70;15.03;;;11.30;99.90;;;;;;474481;251;28338;-73
2022/03/29 08:05:28;;;;;;;33.53;18.00;;;11.60;99.90;;;;;;474118;250;28512;-73
2022/03/29 08:07:46;;;;;;;28.67;17.30;;;11.90;99.90;;;;;;474429;251;28907;-73
2022/03/29 08:09:48;;;;;;;31.23;18.90;;;11.90;99.90;;;;;;474539;250;28593;-74
2022/03/29 08:11:57;;;;;;;32.33;17.33;;;12.10;99.90;;;;;;474495;251;28966;-73
2022/03/29 08:13:59;;;;;;;35.93;16.80;;;;;;;;;;474453;251;29108;-73
2022/03/29 08:16:13;;;;;;;34.20;17.70;;;12.20;99.90;;;;;;474533;251;27271;-74
2022/03/29 08:18:15;;;;;;;29.57;17.30;;;12.30;99.90;;;;;;474503;251;29428;-74
2022/03/29 08:22:47;;;;;;;33.90;17.77;;;12.40;99.90;;;;;;474530;250;28973;-72
2022/03/29 08:24:49;;;;;;;31.33;16.43;;;12.50;99.90;;;;;;474492;251;28362;-72
2022/03/29 08:26:50;;;;;;;25.60;14.57;;;12.60;99.90;;;;;;474497;251;28909;-74
2022/03/29 08:29:07;;;;;;;22.03;12.90;;;12.60;99.90;;;;;;474472;251;28871;-74
2022/03/29 08:31:08;;;;;;;22.00;13.13;;;12.80;99.90;;;;;;474449;251;28475;-73
2022/03/29 08:35:34;;;;;;;19.03;11.77;;;13.00;99.90;;;;;;474558;251;28326;-73
2022/03/29 08:40:13;;;;;;;22.97;12.83;;;13.10;99.90;;;;;;474538;251;28681;-73
2022/03/29 08:42:15;;;;;;;22.97;12.97;;;13.10;99.90;;;;;;474400;251;28944;-74
2022/03/29 08:44:16;;;;;;;25.00;13.47;;;13.10;99.90;;;;;;474451;251;28212;-73
2022/03/29 08:51:27;;;;;;;21.67;13.13;;;13.20;99.90;;;;;;474553;251;28493;-73
2022/03/29 08:56:07;;;;;;;20.30;11.97;;;13.40;99.90;;;;;;474506;251;28986;-74
2022/03/29 09:00:49;;;;;;;18.70;11.50;;;13.60;99.90;;;;;;474519;251;28861;-73
2022/03/29 09:05:29;;;;;;;16.50;9.80;;;13.70;99.90;;;;;;474503;251;28834;-73
2022/03/29 09:09:55;;;;;;;14.23;9.27;;;13.80;99.90;;;;;;474494;250;28609;-73
2022/03/29 09:11:59;;;;;;;13.57;9.60;;;13.80;99.90;;;;;;474483;251;28853;-74
2022/03/29 09:14:00;;;;;;;14.37;8.70;;;13.80;99.90;;;;;;474525;251;28847;-73
2022/03/29 09:18:21;;;;;;;13.20;8.70;;;14.00;99.90;;;;;;474490;251;28941;-73
2022/03/29 09:29:49;;;;;;;11.10;8.10;;;14.20;99.90;;;;;;474517;251;28743;-73
2022/03/29 09:31:50;;;;;;;10.00;8.20;;;14.20;99.90;;;;;;474519;251;28857;-73
2022/03/29 09:33:53;;;;;;;11.90;8.20;;;14.10;99.90;;;;;;474523;251;29370;-73
2022/03/29 09:35:54;;;;;;;12.10;8.53;;;14.30;99.90;;;;;;474524;251;28956;-73
2022/03/29 09:37:58;;;;;;;11.70;8.23;;;14.30;99.90;;;;;;474513;251;29948;-73
2022/03/29 09:39:58;;;;;;;10.60;7.80;;;14.40;99.90;;;;;;474469;251;28885;-74
2022/03/29 09:42:01;;;;;;;12.70;9.10;;;14.30;99.90;;;;;;474592;251;29348;-74
2022/03/29 09:44:02;;;;;;;13.43;9.27;;;14.30;99.90;;;;;;474648;251;28877;-74
2022/03/29 09:46:04;;;;;;;11.40;8.30;;;14.10;98.80;;;;;;474683;251;29381;-73
2022/03/29 09:48:06;;;;;;;12.33;8.17;;;14.10;99.30;;;;;;474653;251;28908;-73
2022/03/29 09:50:13;;;;;;;11.90;8.47;;;14.10;99.90;;;;;;474644;251;29299;-73
2022/03/29 09:52:15;;;;;;;13.00;8.67;;;14.10;98.80;;;;;;474501;251;28993;-73
2022/03/29 09:54:22;;;;;;;9.80;8.27;;;14.10;99.90;;;;;;474524;251;28861;-73
2022/03/29 09:56:29;;;;;;;13.30;8.20;;;14.30;99.90;;;;;;474557;251;29181;-73
2022/03/29 10:00:50;;;;;;;9.80;8.23;;;14.30;99.60;;;;;;474514;250;29349;-73
2022/03/29 10:03:02;;;;;;;12.23;8.73;;;14.30;98.60;;;;;;474476;251;28843;-74
2022/03/29 10:05:03;;;;;;;12.00;8.50;;;14.30;98.60;;;;;;474532;251;29741;-73
2022/03/29 10:07:18;;;;;;;11.57;8.27;;;14.50;98.80;;;;;;474531;251;28980;-73
2022/03/29 10:09:29;;;;;;;10.57;7.60;;;14.70;99.40;;;;;;474460;251;29020;-73
2022/03/29 10:11:32;;;;;;;14.83;8.90;;;14.70;98.00;;;;;;474451;251;28888;-74
2022/03/29 10:13:35;;;;;;;9.50;8.20;;;14.60;97.70;;;;;;474531;251;28995;-74
2022/03/29 10:15:37;;;;;;;13.47;9.67;;;14.60;98.00;;;;;;474421;251;28904;-74
2022/03/29 10:17:38;;;;;;;11.83;8.60;;;14.60;97.40;;;;;;474501;251;28848;-74
2022/03/29 10:22:02;;;;;;;8.20;6.93;;;14.80;98.60;;;;;;474488;251;29362;-74
2022/03/29 10:26:24;;;;;;;11.60;8.47;;;14.90;97.30;;;;;;474458;250;29728;-74
2022/03/29 10:28:44;;;;;;;9.90;7.37;;;15.00;98.30;;;;;;474506;251;28865;-74
2022/03/29 10:30:45;;;;;;;12.00;7.67;;;15.00;97.40;;;;;;474468;251;28962;-74
2022/03/29 10:37:56;;;;;;;9.23;7.40;;;15.00;96.90;;;;;;474538;251;28724;-74
2022/03/29 10:39:57;;;;;;;10.40;7.70;;;15.20;96.70;;;;;;474479;251;29331;-74
2022/03/29 10:44:14;;;;;;;9.77;7.47;;;15.20;95.60;;;;;;474477;251;28860;-74
2022/03/29 10:46:25;;;;;;;9.33;7.73;;;15.30;94.10;;;;;;474383;251;29372;-74
2022/03/29 10:48:27;;;;;;;7.27;6.43;;;15.30;97.90;;;;;;474464;251;28868;-74
2022/03/29 10:55:37;;;;;;;7.00;6.30;;;15.80;94.00;;;;;;474501;251;28681;-74
2022/03/29 11:00:17;;;;;;;7.67;6.63;;;15.80;93.50;;;;;;474504;251;28812;-74
2022/03/29 11:02:14;;;;;;;8.83;7.23;;;15.70;93.40;;;;;;474283;250;28914;-73
2022/03/29 11:06:53;;;;;;;9.60;6.83;;;15.80;94.70;;;;;;474504;251;28819;-74
2022/03/29 11:08:55;;;;;;;8.93;6.93;;;15.80;93.50;;;;;;474493;251;28926;-74
2022/03/29 11:11:11;;;;;;;9.67;6.63;;;15.90;92.50;;;;;;474409;251;28980;-74
2022/03/29 11:13:12;;;;;;;11.80;6.83;;;16.00;92.20;;;;;;474535;251;28872;-74
2022/03/29 11:17:46;;;;;;;8.73;7.30;;;16.10;93.00;;;;;;474535;250;29431;-74
2022/03/29 11:20:00;;;;;;;11.07;7.50;;;16.30;95.00;;;;;;474483;251;28860;-74
2022/03/29 11:22:00;;;;;;;9.80;8.00;;;16.40;95.70;;;;;;473863;251;28992;-74
2022/03/29 11:24:01;;;;;;;8.07;7.20;;;16.40;94.90;;;;;;474136;251;28904;-74
2022/03/29 11:28:26;;;;;;;9.60;7.27;;;16.10;92.80;;;;;;474467;250;29393;-74
2022/03/29 11:32:57;;;;;;;7.60;6.90;;;16.10;91.60;;;;;;474521;250;29290;-74
2022/03/29 11:35:04;;;;;;;8.43;6.97;;;16.20;93.40;;;;;;474554;251;29489;-74
2022/03/29 11:37:05;;;;;;;7.60;6.63;;;16.30;91.40;;;;;;474494;251;28844;-74
2022/03/29 11:41:33;;;;;;;9.73;7.00;;;16.30;90.90;;;;;;474573;251;28754;-74
2022/03/29 11:43:33;;;;;;;10.17;6.80;;;16.20;90.80;;;;;;474404;251;28911;-74
2022/03/29 11:45:35;;;;;;;10.50;7.37;;;16.30;91.00;;;;;;474526;251;28915;-74
2022/03/29 11:50:29;;;;;;;10.50;7.07;;;16.20;90.10;;;;;;474545;250;28971;-75
2022/03/29 11:52:30;;;;;;;11.23;6.80;;;16.40;90.40;;;;;;474483;251;29401;-74
2022/03/29 11:56:54;;;;;;;8.50;7.33;;;16.60;92.20;;;;;;474529;251;28894;-74
2022/03/29 12:01:34;;;;;;;7.17;6.47;;;16.60;90.90;;;;;;474533;250;28903;-74
2022/03/29 12:03:33;;;;;;;8.63;6.57;;;16.70;91.00;;;;;;474334;250;29348;-74
2022/03/29 12:05:42;;;;;;;9.57;7.30;;;16.80;91.70;;;;;;474394;251;29394;-75
2022/03/29 12:07:45;;;;;;;8.83;6.93;;;16.80;91.50;;;;;;474476;251;28919;-75
2022/03/29 12:09:44;;;;;;;8.57;6.83;;;16.90;91.10;;;;;;474437;250;28902;-75
2022/03/29 12:11:46;;;;;;;8.40;7.40;;;16.80;90.30;;;;;;474549;251;29320;-74
2022/03/29 12:13:59;;;;;;;8.40;6.20;;;16.70;89.90;;;;;;474536;251;29498;-74
2022/03/29 12:16:01;;;;;;;8.63;6.37;;;16.70;89.60;;;;;;474428;251;29357;-76
2022/03/29 12:20:27;;;;;;;7.13;6.43;;;16.70;89.60;;;;;;474594;251;28909;-74
2022/03/29 12:25:09;;;;;;;7.37;6.00;;;16.60;90.60;;;;;;474550;251;29307;-74
2022/03/29 12:29:47;;;;;;;7.60;5.97;;;16.60;88.00;;;;;;474502;251;28731;-74
2022/03/29 12:34:37;;;;;;;6.80;6.03;;;16.70;86.20;;;;;;474391;250;28942;-74
2022/03/29 12:36:38;;;;;;;11.30;6.53;;;16.50;86.30;;;;;;474499;251;28865;-74
2022/03/29 12:41:06;;;;;;;8.60;6.87;;;16.50;87.80;;;;;;474530;250;29413;-74
2022/03/29 12:45:45;;;;;;;8.57;6.53;;;16.60;87.60;;;;;;474504;251;28932;-74
2022/03/29 12:47:46;;;;;;;7.70;6.20;;;16.70;88.30;;;;;;474532;251;28887;-75
2022/03/29 12:50:01;;;;;;;7.43;5.47;;;16.70;89.30;;;;;;474515;251;28848;-74
2022/03/29 12:52:03;;;;;;;8.93;6.60;;;16.80;89.20;;;;;;474456;251;28953;-74
2022/03/29 12:54:04;;;;;;;7.40;6.47;;;16.80;87.50;;;;;;474527;251;28990;-75
2022/03/29 12:56:09;;;;;;;11.30;7.23;;;16.80;88.30;;;;;;474512;250;28903;-74
2022/03/29 12:58:14;;;;;;;7.03;6.13;;;16.90;88.00;;;;;;474258;251;29384;-74
2022/03/29 13:00:15;;;;;;;10.17;7.00;;;16.80;86.70;;;;;;474521;251;29001;-74